Riverside, Nebraska
Current Conditions -  °F | °C
As of 1:55 PM on Wednesday 17 Dec 2014 (Local Time) from KBIE Reporting Station
Overcast Overcast  
Wind Chill: 27°   Ceiling: 8500
Heat Index: 27°   Visibility: 10mi
Dew Point: 17°   Wind: 3mph
Humidity: 67%   Direction: 130°SE
Pressure: 30.24"   Gusts: NA
Location:  40.2674°N, 96.7699°W
Report Text: KBIE 171955Z AUTO 13003KT 10SM OVC085 M03/M08 A3024 RMK AO2 T10271081
Loading
Personal Weather Stations






























Interactive Weather Map New forecast layout! Learn more

10-Day Weather Forecast

Advertisements
Track Severe Weather on mobile